45°F Temp
34°F Dewpoint
66% Humidity
Temperature
16 MPH
26 KM/H
14 KTS
120°
East South
East

Wind Speed
Light Rain
Showers
Pressure 1023.02 (hPa) - 30.21 (in)
Visibility 9.9 (mi) - 16.0 (km)

Current Conditions
KCBK
Location 5(mi)
Metar :KCBK 301615Z AUTO 12014KT 10SM -RA SCT065 OVC085 07/01 A3021 RMK AO2 T00740008
Tue 30th November 10:15 am

Airport
  Metar Aviation API Data Provided by https://www.checkwx.com/ PHP scripts by weather34.com ©2021